Time;durP1;ratioP1;P1;durP2;ratioP2;P2;SDS_P1;SDS_P2;PMS_P1;PMS_P2;Temp;Humidity;BMP_temperature;BMP_pressure;BME280_temperature;BME280_humidity;BME280_pressure;Samples;Min_cycle;Max_cycle;Signal;HPM_P1;HPM_P2
2021/09/11 00:01:16;;;;;;;9.25;7.90;;;18.40;99.90;;;;;;4958785;28;20051;-81
2021/09/11 00:03:42;;;;;;;9.80;8.00;;;18.30;99.90;;;;;;4970771;28;20043;-81
2021/09/11 00:06:08;;;;;;;9.52;8.00;;;18.30;99.90;;;;;;4988648;28;20043;-81
2021/09/11 00:08:34;;;;;;;10.20;8.30;;;18.30;99.90;;;;;;4962879;28;20046;-81
2021/09/11 00:11:00;;;;;;;9.35;8.10;;;18.30;99.90;;;;;;4956408;28;20050;-82
2021/09/11 00:13:27;;;;;;;10.73;8.63;;;18.30;99.90;;;;;;4937030;28;20047;-80
2021/09/11 00:15:53;;;;;;;10.18;8.50;;;18.30;99.90;;;;;;4955655;28;20039;-80
2021/09/11 00:18:20;;;;;;;10.88;9.43;;;18.30;99.90;;;;;;4954654;28;20036;-81
2021/09/11 00:20:46;;;;;;;11.10;8.80;;;18.30;99.90;;;;;;4967059;28;20108;-81
2021/09/11 00:23:13;;;;;;;9.90;8.85;;;18.30;99.90;;;;;;4953719;28;20059;-80
2021/09/11 00:25:39;;;;;;;11.57;9.52;;;18.30;99.90;;;;;;4953598;28;20038;-81
2021/09/11 00:28:06;;;;;;;11.13;9.63;;;18.30;99.90;;;;;;4953815;28;20039;-80
2021/09/11 00:30:32;;;;;;;12.30;9.65;;;18.30;99.90;;;;;;4952625;28;20042;-80
2021/09/11 00:32:58;;;;;;;10.90;9.55;;;18.30;99.90;;;;;;4953969;28;20374;-80
2021/09/11 00:35:24;;;;;;;12.30;9.90;;;18.30;99.90;;;;;;4953594;28;20035;-79
2021/09/11 00:37:50;;;;;;;12.20;10.00;;;18.30;99.90;;;;;;4953672;28;20038;-81
2021/09/11 00:40:18;;;;;;;10.80;9.30;;;18.30;99.90;;;;;;4953717;28;20043;-80
2021/09/11 00:42:48;;;;;;;10.45;9.32;;;18.30;99.90;;;;;;4958746;28;20030;-80
2021/09/11 00:45:16;;;;;;;10.45;9.13;;;18.30;99.90;;;;;;4948880;28;20047;-80
2021/09/11 00:47:42;;;;;;;10.75;8.85;;;18.20;99.90;;;;;;4953718;28;20038;-81
2021/09/11 00:50:09;;;;;;;11.55;9.65;;;18.20;99.90;;;;;;4955111;28;20035;-81
2021/09/11 00:52:41;;;;;;;11.50;9.63;;;18.20;99.90;;;;;;4953431;28;20047;-81
2021/09/11 00:55:09;;;;;;;12.18;10.23;;;18.20;99.90;;;;;;4954193;28;20043;-81
2021/09/11 00:57:39;;;;;;;11.45;9.50;;;18.20;99.90;;;;;;4953081;28;20035;-81
2021/09/11 01:00:06;;;;;;;10.90;9.80;;;18.30;99.90;;;;;;4957643;28;20476;-81
2021/09/11 01:02:32;;;;;;;10.02;8.82;;;18.30;99.90;;;;;;4957490;28;20039;-81
2021/09/11 01:04:58;;;;;;;9.55;8.07;;;18.30;99.90;;;;;;4957219;28;20035;-81
2021/09/11 01:07:25;;;;;;;11.65;9.32;;;18.30;99.90;;;;;;4956894;28;20039;-79
2021/09/11 01:09:53;;;;;;;11.25;8.88;;;18.30;99.90;;;;;;4955629;28;20461;-80
2021/09/11 01:12:19;;;;;;;10.95;8.63;;;18.30;99.90;;;;;;4956865;28;20058;-80
2021/09/11 01:14:46;;;;;;;10.77;8.40;;;18.40;99.90;;;;;;4956317;28;20483;-80
2021/09/11 01:17:16;;;;;;;10.70;9.13;;;18.40;99.90;;;;;;4955604;28;20050;-81
2021/09/11 01:19:43;;;;;;;10.85;8.98;;;18.50;99.90;;;;;;4956515;28;20043;-80
2021/09/11 01:22:14;;;;;;;10.93;9.15;;;18.50;99.90;;;;;;4956801;28;20035;-81
2021/09/11 01:24:55;;;;;;;11.57;9.15;;;18.50;99.90;;;;;;4956159;28;20047;-80
2021/09/11 01:27:22;;;;;;;14.45;9.10;;;18.60;99.90;;;;;;4956931;28;20042;-80
2021/09/11 01:29:56;;;;;;;11.00;9.00;;;18.60;99.90;;;;;;4956638;28;20028;-80
2021/09/11 01:32:23;;;;;;;9.80;7.53;;;18.60;99.90;;;;;;4964136;28;20062;-80
2021/09/11 01:34:50;;;;;;;10.07;8.27;;;18.60;99.90;;;;;;4957414;28;20466;-80
2021/09/11 01:37:17;;;;;;;10.07;8.63;;;18.60;99.90;;;;;;4956707;28;20038;-80
2021/09/11 01:39:47;;;;;;;9.52;8.27;;;18.60;99.90;;;;;;4955838;28;20035;-80
2021/09/11 01:42:17;;;;;;;9.95;8.68;;;18.60;99.90;;;;;;4957232;28;20039;-81
2021/09/11 01:45:08;;;;;;;10.73;8.27;;;18.60;99.90;;;;;;4956220;28;20031;-81
2021/09/11 01:47:34;;;;;;;;;;;18.60;99.90;;;;;;4956369;28;20035;-80
2021/09/11 01:50:01;;;;;;;10.80;8.15;;;18.60;99.90;;;;;;4956594;28;19910;-80
2021/09/11 01:52:27;;;;;;;11.05;8.15;;;18.50;99.90;;;;;;4939207;28;20477;-78
2021/09/11 01:54:53;;;;;;;10.18;8.50;;;18.50;99.90;;;;;;4955633;28;20059;-79
2021/09/11 01:57:19;;;;;;;12.63;8.40;;;18.40;99.90;;;;;;4961483;28;20047;-80
2021/09/11 01:59:46;;;;;;;11.20;9.68;;;18.50;99.90;;;;;;4955801;28;20038;-81
2021/09/11 02:02:12;;;;;;;8.73;7.72;;;18.50;99.90;;;;;;4955529;28;20090;-81
2021/09/11 02:04:38;;;;;;;9.38;8.30;;;18.40;99.90;;;;;;4955645;28;20042;-81
2021/09/11 02:07:06;;;;;;;9.63;8.48;;;18.40;99.90;;;;;;4955407;28;20047;-79
2021/09/11 02:09:33;;;;;;;11.25;8.18;;;18.40;99.90;;;;;;4955264;28;20462;-79
2021/09/11 02:12:00;;;;;;;9.93;8.55;;;18.40;99.90;;;;;;4954363;28;20050;-80
2021/09/11 02:14:27;;;;;;;10.93;8.82;;;18.40;99.90;;;;;;4956062;28;20032;-79
2021/09/11 02:16:53;;;;;;;9.63;8.45;;;18.40;99.90;;;;;;4955798;28;20043;-80
2021/09/11 02:19:19;;;;;;;10.10;8.70;;;18.30;99.90;;;;;;4954443;28;20035;-81
2021/09/11 02:21:46;;;;;;;10.90;9.70;;;18.40;99.90;;;;;;4959462;28;20026;-81
2021/09/11 02:24:12;;;;;;;10.02;8.77;;;18.40;99.90;;;;;;4973554;28;20051;-80
2021/09/11 02:26:38;;;;;;;9.38;8.25;;;18.40;99.90;;;;;;4959820;28;20042;-81
2021/09/11 02:29:05;;;;;;;9.52;8.52;;;18.40;99.90;;;;;;4963307;28;20031;-81
2021/09/11 02:31:31;;;;;;;8.93;8.02;;;18.40;99.90;;;;;;4964330;28;20031;-79
2021/09/11 02:33:57;;;;;;;10.23;7.78;;;18.40;99.90;;;;;;4968190;28;20035;-82
2021/09/11 02:36:24;;;;;;;8.85;7.63;;;18.40;99.90;;;;;;4969132;28;20334;-81
2021/09/11 02:38:50;;;;;;;8.35;6.90;;;18.30;99.90;;;;;;4967860;28;20049;-81
2021/09/11 02:41:16;;;;;;;9.02;6.80;;;18.30;99.90;;;;;;4955867;28;20392;-81
2021/09/11 02:43:42;;;;;;;7.63;6.55;;;18.30;99.90;;;;;;4955071;28;20055;-81
2021/09/11 02:46:09;;;;;;;7.85;6.80;;;18.30;99.90;;;;;;4955498;28;20039;-81
2021/09/11 02:48:35;;;;;;;7.82;6.43;;;18.30;99.90;;;;;;4954970;28;20042;-81
2021/09/11 02:51:01;;;;;;;8.32;6.97;;;18.30;99.90;;;;;;4938334;28;20047;-81
2021/09/11 02:53:27;;;;;;;7.40;6.47;;;18.30;99.90;;;;;;4955807;29;20370;-77
2021/09/11 02:55:53;;;;;;;8.70;7.20;;;18.20;99.90;;;;;;4959085;28;20034;-80
2021/09/11 02:58:23;;;;;;;7.95;6.53;;;18.10;99.90;;;;;;4969228;28;20027;-81
2021/09/11 03:00:50;;;;;;;8.07;6.75;;;18.10;99.90;;;;;;4954809;28;20023;-79
2021/09/11 03:03:16;;;;;;;7.78;7.00;;;18.10;99.90;;;;;;4954823;28;20031;-81
2021/09/11 03:05:42;;;;;;;7.93;6.88;;;18.10;99.90;;;;;;4953480;28;20066;-80
2021/09/11 03:08:09;;;;;;;8.27;6.72;;;18.00;99.90;;;;;;4955002;28;20587;-81
2021/09/11 03:10:35;;;;;;;7.45;6.38;;;18.00;99.90;;;;;;4954508;28;20031;-80
2021/09/11 03:13:01;;;;;;;7.72;6.60;;;18.00;99.90;;;;;;4954592;28;20048;-81
2021/09/11 03:15:27;;;;;;;9.43;7.15;;;18.00;99.90;;;;;;4954749;28;20040;-80
2021/09/11 03:17:54;;;;;;;8.50;6.88;;;18.00;99.90;;;;;;4955149;28;20429;-81
2021/09/11 03:20:20;;;;;;;7.47;6.07;;;18.00;99.90;;;;;;4954398;28;20032;-81
2021/09/11 03:22:46;;;;;;;8.63;6.90;;;18.00;99.90;;;;;;4953425;28;20046;-82
2021/09/11 03:25:13;;;;;;;7.10;5.60;;;18.00;99.90;;;;;;4954680;28;20203;-82
2021/09/11 03:27:39;;;;;;;8.75;6.63;;;18.00;99.90;;;;;;4953645;28;20477;-81
2021/09/11 03:30:07;;;;;;;7.85;6.07;;;18.00;99.90;;;;;;4953125;28;20043;-80
2021/09/11 03:32:33;;;;;;;6.65;5.80;;;18.00;99.90;;;;;;4936250;28;20062;-80
2021/09/11 03:34:59;;;;;;;6.93;6.22;;;17.90;99.90;;;;;;4953376;28;20035;-81
2021/09/11 03:37:25;;;;;;;8.25;6.32;;;17.90;99.90;;;;;;4954307;28;20464;-81
2021/09/11 03:39:51;;;;;;;8.35;6.55;;;17.80;99.90;;;;;;4954041;28;20031;-81
2021/09/11 03:42:17;;;;;;;7.72;5.97;;;17.70;99.90;;;;;;4954541;29;20051;-81
2021/09/11 03:44:44;;;;;;;8.52;6.85;;;17.70;99.90;;;;;;4954006;28;20039;-81
2021/09/11 03:47:10;;;;;;;6.47;5.63;;;17.70;99.90;;;;;;4955058;28;20035;-81
2021/09/11 03:49:36;;;;;;;11.52;6.95;;;17.70;99.90;;;;;;4954277;28;20031;-81
2021/09/11 03:52:02;;;;;;;8.05;6.97;;;17.60;99.90;;;;;;4954838;28;20035;-81
2021/09/11 03:54:28;;;;;;;8.10;6.57;;;17.50;99.90;;;;;;4954209;28;20064;-79
2021/09/11 03:56:55;;;;;;;7.55;6.70;;;17.50;99.90;;;;;;4969519;28;20045;-81
2021/09/11 03:59:21;;;;;;;7.82;6.32;;;17.40;99.90;;;;;;4961807;28;20386;-82
2021/09/11 04:01:47;;;;;;;9.05;6.75;;;17.30;99.90;;;;;;4953055;28;20042;-82
2021/09/11 04:04:13;;;;;;;9.68;7.40;;;17.30;99.90;;;;;;4954421;28;20073;-80
2021/09/11 04:06:39;;;;;;;9.07;6.93;;;17.30;99.90;;;;;;4953800;28;20027;-81
2021/09/11 04:09:06;;;;;;;8.68;6.07;;;17.30;99.90;;;;;;4954210;28;20046;-81
2021/09/11 04:11:32;;;;;;;10.55;7.00;;;17.30;99.90;;;;;;4953963;28;20039;-78
2021/09/11 04:13:58;;;;;;;7.93;6.72;;;17.30;99.90;;;;;;4954312;28;20055;-81
2021/09/11 04:16:24;;;;;;;8.35;6.43;;;17.40;99.90;;;;;;4953721;28;20496;-80
2021/09/11 04:18:50;;;;;;;9.32;6.22;;;17.40;99.90;;;;;;4954156;28;20586;-81
2021/09/11 04:21:17;;;;;;;8.35;6.30;;;17.40;99.90;;;;;;4954268;28;20048;-80
2021/09/11 04:23:43;;;;;;;6.90;6.20;;;17.40;99.90;;;;;;4953706;28;20070;-81
2021/09/11 04:26:09;;;;;;;7.90;5.85;;;17.50;99.90;;;;;;4953797;28;20032;-81
2021/09/11 04:28:35;;;;;;;7.45;5.50;;;17.50;99.90;;;;;;4953900;28;20035;-80
2021/09/11 04:31:02;;;;;;;11.52;5.57;;;17.50;99.90;;;;;;4955027;28;20040;-81
2021/09/11 04:33:28;;;;;;;7.00;6.10;;;17.60;99.90;;;;;;4957045;28;20039;-81
2021/09/11 04:35:54;;;;;;;5.75;4.93;;;17.60;99.90;;;;;;4945714;28;20046;-80
2021/09/11 04:38:20;;;;;;;6.35;5.07;;;17.50;99.90;;;;;;4964893;28;20039;-80
2021/09/11 04:40:47;;;;;;;6.85;5.05;;;17.50;99.90;;;;;;4960373;28;20031;-79
2021/09/11 04:43:13;;;;;;;5.40;4.80;;;17.50;99.90;;;;;;4957990;28;20380;-80
2021/09/11 04:45:39;;;;;;;5.97;5.10;;;17.40;99.90;;;;;;4956786;28;20039;-80
2021/09/11 04:48:06;;;;;;;6.20;5.05;;;17.40;99.90;;;;;;4957774;28;20039;-81
2021/09/11 04:50:32;;;;;;;5.80;4.45;;;17.30;99.90;;;;;;4956787;28;20044;-79
2021/09/11 04:52:58;;;;;;;6.65;5.30;;;17.30;99.90;;;;;;4957583;28;20048;-81
2021/09/11 04:55:24;;;;;;;7.13;5.93;;;17.30;99.90;;;;;;4957126;28;20074;-81
2021/09/11 04:57:50;;;;;;;6.65;4.65;;;17.30;99.90;;;;;;4956986;28;20043;-80
2021/09/11 05:00:17;;;;;;;6.85;5.03;;;17.30;99.90;;;;;;4957305;29;20035;-81
2021/09/11 05:02:43;;;;;;;9.52;5.28;;;17.20;99.90;;;;;;4956463;28;20049;-81
2021/09/11 05:05:09;;;;;;;6.45;4.55;;;17.20;99.90;;;;;;4956119;28;20504;-82
2021/09/11 05:07:36;;;;;;;6.95;5.25;;;17.20;99.90;;;;;;4956792;28;20473;-81
2021/09/11 05:10:03;;;;;;;8.07;6.18;;;17.20;99.90;;;;;;4957008;29;20027;-81
2021/09/11 05:12:29;;;;;;;9.05;6.13;;;17.20;99.90;;;;;;4955734;28;20043;-82
2021/09/11 05:14:55;;;;;;;7.20;5.97;;;17.20;99.90;;;;;;4954972;28;20055;-81
2021/09/11 05:17:21;;;;;;;8.63;6.00;;;17.20;99.90;;;;;;4957123;28;20043;-81
2021/09/11 05:19:47;;;;;;;9.40;6.43;;;17.20;99.90;;;;;;4942376;28;20031;-81
2021/09/11 05:22:14;;;;;;;7.75;5.45;;;17.20;99.90;;;;;;4958686;28;20035;-81
2021/09/11 05:24:41;;;;;;;7.45;5.82;;;17.20;99.90;;;;;;4956307;28;20043;-81
2021/09/11 05:27:08;;;;;;;6.20;5.00;;;17.30;99.90;;;;;;4957168;28;20054;-82
2021/09/11 05:29:34;;;;;;;7.63;5.68;;;17.30;99.90;;;;;;4956901;28;20039;-81
2021/09/11 05:32:00;;;;;;;7.70;6.07;;;17.40;99.90;;;;;;4970230;28;20526;-81
2021/09/11 05:34:27;;;;;;;8.68;7.38;;;17.40;99.90;;;;;;4967070;28;20401;-81
2021/09/11 05:36:53;;;;;;;7.85;6.82;;;17.40;99.90;;;;;;4957321;28;20039;-81
2021/09/11 05:39:19;;;;;;;7.85;6.30;;;17.40;99.90;;;;;;4964143;28;20031;-82
2021/09/11 05:41:45;;;;;;;7.13;5.82;;;17.40;99.90;;;;;;4966716;28;20034;-81
2021/09/11 05:44:11;;;;;;;8.63;7.18;;;17.40;99.90;;;;;;4967201;28;20461;-81
2021/09/11 05:46:38;;;;;;;6.32;5.43;;;17.60;99.90;;;;;;4962180;28;20043;-81
2021/09/11 05:49:04;;;;;;;7.38;6.57;;;17.70;99.90;;;;;;4959778;28;20039;-82
2021/09/11 05:51:30;;;;;;;6.45;5.20;;;17.80;99.90;;;;;;4958331;28;20034;-81
2021/09/11 05:53:56;;;;;;;5.82;5.07;;;17.80;99.90;;;;;;4956983;28;20051;-81
2021/09/11 05:56:22;;;;;;;10.15;6.20;;;17.90;99.90;;;;;;4957730;28;20050;-81
2021/09/11 05:58:48;;;;;;;7.38;5.68;;;18.00;99.90;;;;;;4957270;28;20054;-79
2021/09/11 06:01:15;;;;;;;8.88;5.82;;;18.10;99.90;;;;;;4939853;28;20046;-81
2021/09/11 06:03:41;;;;;;;7.95;5.82;;;18.10;99.90;;;;;;4956685;28;20066;-81
2021/09/11 06:06:07;;;;;;;6.85;5.13;;;18.00;99.90;;;;;;4956875;28;20046;-81
2021/09/11 06:08:34;;;;;;;8.15;6.55;;;17.90;99.90;;;;;;4956696;28;20397;-78
2021/09/11 06:11:00;;;;;;;7.38;6.47;;;18.00;99.90;;;;;;4955532;28;20047;-81
2021/09/11 06:13:26;;;;;;;7.35;5.45;;;17.90;99.90;;;;;;4956101;28;20042;-81
2021/09/11 06:15:52;;;;;;;7.25;6.50;;;17.90;99.90;;;;;;4955506;28;20039;-82
2021/09/11 06:18:18;;;;;;;6.35;4.85;;;17.90;99.90;;;;;;4955205;28;20043;-82
2021/09/11 06:20:45;;;;;;;7.15;5.57;;;17.90;99.90;;;;;;4955356;28;20027;-81
2021/09/11 06:23:11;;;;;;;7.88;6.15;;;18.10;99.90;;;;;;4956504;28;20059;-82
2021/09/11 06:25:37;;;;;;;7.15;5.63;;;18.10;99.90;;;;;;4955430;28;20047;-81
2021/09/11 06:28:03;;;;;;;6.68;5.28;;;18.10;99.90;;;;;;4955782;28;20049;-81
2021/09/11 06:30:30;;;;;;;7.70;5.85;;;18.20;99.90;;;;;;4955900;29;20039;-82
2021/09/11 06:32:56;;;;;;;8.50;5.75;;;18.30;99.90;;;;;;4954496;28;20039;-82
2021/09/11 06:35:22;;;;;;;5.93;5.07;;;18.30;99.90;;;;;;4956923;29;20047;-82
2021/09/11 06:37:51;;;;;;;7.80;5.53;;;18.40;99.90;;;;;;4955475;28;20023;-82
2021/09/11 06:40:18;;;;;;;6.25;5.25;;;18.50;99.90;;;;;;4954345;28;20043;-82
2021/09/11 06:42:44;;;;;;;5.53;4.78;;;18.40;99.90;;;;;;4955081;28;20059;-82
2021/09/11 06:45:10;;;;;;;7.00;5.78;;;18.50;99.90;;;;;;4955887;28;20035;-82
2021/09/11 06:47:37;;;;;;;6.20;5.40;;;18.60;99.90;;;;;;4954589;28;20377;-81
2021/09/11 06:50:03;;;;;;;6.30;5.47;;;18.70;99.90;;;;;;4955560;29;20036;-82
2021/09/11 06:52:29;;;;;;;7.20;5.32;;;18.70;99.90;;;;;;4937907;28;20047;-82
2021/09/11 06:54:56;;;;;;;5.68;5.07;;;18.80;99.90;;;;;;4954687;28;20043;-80
2021/09/11 06:57:22;;;;;;;6.68;4.68;;;18.80;99.90;;;;;;4955215;28;20476;-82
2021/09/11 06:59:48;;;;;;;5.32;4.80;;;18.80;99.90;;;;;;4954544;28;20111;-82
2021/09/11 07:02:14;;;;;;;5.97;4.88;;;18.80;99.90;;;;;;4955190;28;20035;-82
2021/09/11 07:04:40;;;;;;;6.28;5.13;;;18.70;99.90;;;;;;4953500;28;20030;-79
2021/09/11 07:07:09;;;;;;;7.45;5.13;;;18.70;99.90;;;;;;4956438;28;20055;-79
2021/09/11 07:09:35;;;;;;;6.93;4.65;;;18.70;99.90;;;;;;4990847;28;20026;-79
2021/09/11 07:12:01;;;;;;;5.57;4.22;;;18.70;99.90;;;;;;4967850;28;20034;-79
2021/09/11 07:14:27;;;;;;;6.28;4.35;;;18.70;99.90;;;;;;4956161;28;20027;-80
2021/09/11 07:16:53;;;;;;;4.72;3.97;;;18.80;99.90;;;;;;4958329;28;20433;-79
2021/09/11 07:19:20;;;;;;;5.00;4.05;;;19.00;99.90;;;;;;4958822;28;20051;-79
2021/09/11 07:21:46;;;;;;;6.15;3.70;;;19.10;99.90;;;;;;4956885;28;20031;-79
2021/09/11 07:24:13;;;;;;;4.82;3.83;;;19.20;99.90;;;;;;4955608;28;20043;-79
2021/09/11 07:26:39;;;;;;;5.78;4.00;;;19.40;99.90;;;;;;4955151;28;20035;-81
2021/09/11 07:29:05;;;;;;;5.28;3.80;;;19.40;99.90;;;;;;4955590;28;20035;-81
2021/09/11 07:31:31;;;;;;;5.80;4.22;;;19.40;99.90;;;;;;4954962;28;20070;-80
2021/09/11 07:33:57;;;;;;;6.53;4.25;;;19.50;99.90;;;;;;4956764;28;20039;-79
2021/09/11 07:36:24;;;;;;;5.53;4.30;;;19.50;99.90;;;;;;4970920;28;20042;-80
2021/09/11 07:38:50;;;;;;;4.53;3.80;;;19.50;99.90;;;;;;4963830;28;20362;-78
2021/09/11 07:41:16;;;;;;;6.28;3.90;;;19.60;99.90;;;;;;4956631;28;20485;-79
2021/09/11 07:43:43;;;;;;;5.35;3.97;;;19.60;99.90;;;;;;4956076;28;20492;-79
2021/09/11 07:46:09;;;;;;;4.95;3.67;;;19.50;99.90;;;;;;4955613;28;20386;-79
2021/09/11 07:48:35;;;;;;;4.43;3.47;;;19.40;99.90;;;;;;4955412;28;20035;-79
2021/09/11 07:51:02;;;;;;;5.70;3.67;;;19.40;99.90;;;;;;4953525;28;20062;-80
2021/09/11 07:53:28;;;;;;;5.50;3.85;;;19.40;99.90;;;;;;4955244;28;20044;-81
2021/09/11 07:55:54;;;;;;;4.57;4.00;;;19.50;99.90;;;;;;4955227;28;20191;-80
2021/09/11 07:58:21;;;;;;;5.47;3.53;;;19.80;99.90;;;;;;4958940;28;20054;-79
2021/09/11 08:00:47;;;;;;;6.25;4.00;;;19.90;99.90;;;;;;4962446;28;20054;-79
2021/09/11 08:03:13;;;;;;;4.35;3.33;;;20.00;99.90;;;;;;4967431;28;20035;-80
2021/09/11 08:05:40;;;;;;;5.03;3.70;;;20.30;99.90;;;;;;4953520;28;20466;-79
2021/09/11 08:08:06;;;;;;;4.22;3.83;;;20.90;99.90;;;;;;4954748;28;20058;-80
2021/09/11 08:10:32;;;;;;;5.55;3.42;;;22.30;99.80;;;;;;4958078;28;20046;-80
2021/09/11 08:12:58;;;;;;;4.53;3.03;;;23.70;94.10;;;;;;4967411;28;20079;-80
2021/09/11 08:15:24;;;;;;;3.20;2.58;;;24.10;90.70;;;;;;4960543;28;20035;-79
2021/09/11 08:17:51;;;;;;;4.82;2.80;;;24.30;90.00;;;;;;4956563;28;20031;-80
2021/09/11 08:20:17;;;;;;;5.10;3.40;;;23.90;88.60;;;;;;4958248;28;20035;-80
2021/09/11 08:22:43;;;;;;;3.92;2.58;;;23.20;90.20;;;;;;4958409;28;20039;-79
2021/09/11 08:25:10;;;;;;;3.47;3.00;;;22.90;91.10;;;;;;4958105;28;20051;-80
2021/09/11 08:27:36;;;;;;;3.47;2.85;;;22.60;91.80;;;;;;4958875;28;20462;-79
2021/09/11 08:30:04;;;;;;;3.72;2.88;;;22.20;91.80;;;;;;4961153;29;20042;-80
2021/09/11 08:32:31;;;;;;;3.92;3.10;;;22.50;91.20;;;;;;4977153;28;20030;-80
2021/09/11 08:34:57;;;;;;;3.70;2.75;;;22.10;91.30;;;;;;4973336;28;20030;-80
2021/09/11 08:37:23;;;;;;;4.03;2.90;;;21.40;93.30;;;;;;4968002;28;20038;-80
2021/09/11 08:39:49;;;;;;;3.85;2.92;;;21.20;94.40;;;;;;4959411;28;20043;-80
2021/09/11 08:42:19;;;;;;;5.50;3.17;;;21.00;94.50;;;;;;4961673;29;20051;-80
2021/09/11 08:44:45;;;;;;;5.13;2.83;;;20.90;95.20;;;;;;4958079;28;20480;-79
2021/09/11 08:47:11;;;;;;;4.78;2.95;;;20.70;95.80;;;;;;4959410;28;20043;-78
2021/09/11 08:49:37;;;;;;;5.22;3.60;;;20.70;96.00;;;;;;4958760;28;20027;-79
2021/09/11 08:52:07;;;;;;;5.75;3.22;;;20.60;96.60;;;;;;4974459;28;20035;-78
2021/09/11 08:54:37;;;;;;;4.80;3.05;;;20.50;96.20;;;;;;4957651;28;20051;-79
2021/09/11 08:57:23;;;;;;;3.83;3.00;;;20.40;96.30;;;;;;4958550;28;20043;-78
2021/09/11 08:59:50;;;;;;;3.97;3.25;;;20.30;96.60;;;;;;4959377;28;20034;-77
2021/09/11 09:02:18;;;;;;;4.15;3.35;;;20.20;97.40;;;;;;4961643;29;20039;-79
2021/09/11 09:04:55;;;;;;;4.45;2.80;;;20.20;97.50;;;;;;4977036;28;20045;-78
2021/09/11 09:07:35;;;;;;;4.70;3.40;;;20.30;97.50;;;;;;4965359;28;20034;-77
2021/09/11 09:10:10;;;;;;;4.38;2.78;;;20.50;97.10;;;;;;4970142;28;20035;-77
2021/09/11 09:12:40;;;;;;;3.85;2.65;;;20.70;96.50;;;;;;4957469;28;20027;-78
2021/09/11 09:15:09;;;;;;;3.45;2.90;;;20.90;95.70;;;;;;4957422;28;20043;-77
2021/09/11 09:17:50;;;;;;;4.47;3.15;;;21.00;95.60;;;;;;4958432;28;20374;-78
2021/09/11 09:20:28;;;;;;;5.43;3.47;;;21.10;95.40;;;;;;4969152;28;20027;-78
2021/09/11 09:23:00;;;;;;;3.85;3.25;;;21.10;95.00;;;;;;4966316;28;20035;-78
2021/09/11 09:25:37;;;;;;;4.85;3.30;;;21.00;95.50;;;;;;4960559;28;20038;-79
2021/09/11 09:28:07;;;;;;;5.15;3.92;;;21.00;95.70;;;;;;4967213;28;20031;-78
2021/09/11 09:30:39;;;;;;;6.03;3.42;;;20.90;95.20;;;;;;4986474;28;20054;-78
2021/09/11 09:33:07;;;;;;;3.90;3.20;;;20.80;95.20;;;;;;4982880;28;20034;-86
2021/09/11 09:35:34;;;;;;;3.72;3.22;;;20.80;96.00;;;;;;4979199;28;20038;-84
2021/09/11 09:38:08;;;;;;;4.90;3.15;;;20.70;96.00;;;;;;4943614;28;20066;-86
2021/09/11 09:40:42;;;;;;;4.55;3.20;;;20.80;95.90;;;;;;4970091;28;20042;-89
2021/09/11 09:43:10;;;;;;;4.07;3.28;;;20.90;95.60;;;;;;4958676;28;20035;-86
2021/09/11 09:45:37;;;;;;;3.60;2.75;;;20.90;95.90;;;;;;4958659;29;20046;-81
2021/09/11 09:48:14;;;;;;;3.63;2.83;;;21.10;95.30;;;;;;4958475;28;20035;-85
2021/09/11 09:50:42;;;;;;;3.95;3.10;;;21.40;94.70;;;;;;4957654;28;20389;-85
2021/09/11 09:53:09;;;;;;;4.05;3.15;;;21.80;93.80;;;;;;4940248;28;20047;-85
2021/09/11 09:55:39;;;;;;;4.28;2.72;;;22.00;93.10;;;;;;4964730;28;20055;-84
2021/09/11 09:58:06;;;;;;;3.67;2.38;;;22.20;92.20;;;;;;4957176;28;20039;-80
2021/09/11 10:00:33;;;;;;;4.90;2.95;;;22.50;91.60;;;;;;4957264;28;20783;-84
2021/09/11 10:02:59;;;;;;;4.72;2.88;;;22.70;91.20;;;;;;4957904;28;20035;-81
2021/09/11 10:05:29;;;;;;;3.47;2.65;;;23.00;91.10;;;;;;4957865;28;20047;-80
2021/09/11 10:08:00;;;;;;;;;;;23.00;89.60;;;;;;4957185;28;20036;-79
2021/09/11 10:10:32;;;;;;;3.30;2.53;;;23.20;88.30;;;;;;4956211;28;19911;-83
2021/09/11 10:13:28;;;;;;;3.72;2.72;;;23.30;88.10;;;;;;4958359;28;20123;-83
2021/09/11 10:15:57;;;;;;;4.32;2.95;;;23.10;87.80;;;;;;4961277;28;20051;-84
2021/09/11 10:18:40;;;;;;;3.67;2.83;;;23.00;88.90;;;;;;4957048;28;20061;-85
2021/09/11 10:21:40;;;;;;;4.07;3.67;;;23.10;88.80;;;;;;4958011;28;20040;-88
2021/09/11 10:24:13;;;;;;;7.07;3.08;;;23.10;88.50;;;;;;4956407;28;20044;-84
2021/09/11 10:26:58;;;;;;;3.83;2.50;;;23.40;88.40;;;;;;4955573;28;20042;-79
2021/09/11 10:29:33;;;;;;;3.85;2.88;;;23.60;86.70;;;;;;4949738;28;20035;-78
2021/09/11 10:32:01;;;;;;;3.95;2.60;;;24.00;83.90;;;;;;4973563;28;20625;-76
2021/09/11 10:34:57;;;;;;;3.72;2.40;;;24.10;83.60;;;;;;4955318;28;20035;-79
2021/09/11 10:37:40;;;;;;;3.13;2.67;;;24.10;83.70;;;;;;4954353;28;20031;-76
2021/09/11 10:40:27;;;;;;;3.10;2.50;;;24.20;82.40;;;;;;4955340;28;20039;-77
2021/09/11 10:43:29;;;;;;;2.47;2.28;;;24.20;82.90;;;;;;4955236;28;20050;-76
2021/09/11 10:46:02;;;;;;;4.28;2.90;;;24.10;81.90;;;;;;4937113;28;20059;-76
2021/09/11 10:48:44;;;;;;;3.65;2.53;;;23.80;83.50;;;;;;4956221;28;20131;-76
2021/09/11 10:51:16;;;;;;;3.38;2.63;;;23.90;83.80;;;;;;4955844;28;20397;-77
2021/09/11 10:53:56;;;;;;;2.67;2.25;;;24.00;82.20;;;;;;4954864;28;20369;-78
2021/09/11 10:56:48;;;;;;;3.50;2.60;;;23.90;82.40;;;;;;4956375;28;20058;-78
2021/09/11 10:59:20;;;;;;;3.53;2.80;;;23.70;83.30;;;;;;4950943;28;20051;-78
2021/09/11 11:02:06;;;;;;;4.65;2.95;;;23.60;83.30;;;;;;4955813;28;20384;-77
2021/09/11 11:04:33;;;;;;;3.83;2.65;;;23.80;82.70;;;;;;4968793;28;20041;-76
2021/09/11 11:07:02;;;;;;;2.15;1.80;;;23.50;81.70;;;;;;4967439;28;20590;-77
2021/09/11 11:09:37;;;;;;;2.90;2.17;;;23.40;81.90;;;;;;4955204;28;20039;-77
2021/09/11 11:12:03;;;;;;;3.55;2.90;;;23.50;82.00;;;;;;4954499;28;20397;-77
2021/09/11 11:14:32;;;;;;;3.10;2.45;;;23.70;80.80;;;;;;4954687;28;20039;-78
2021/09/11 11:16:58;;;;;;;4.85;2.63;;;23.90;80.20;;;;;;4954244;28;20040;-76
2021/09/11 11:19:34;;;;;;;3.58;2.50;;;24.00;79.90;;;;;;4954467;28;20043;-77
2021/09/11 11:22:12;;;;;;;2.92;2.17;;;24.30;78.90;;;;;;4954259;28;20031;-75
2021/09/11 11:24:44;;;;;;;3.67;2.58;;;24.40;77.70;;;;;;4954189;28;20043;-79
2021/09/11 11:27:13;;;;;;;3.40;2.55;;;24.40;77.00;;;;;;4954384;28;20111;-75
2021/09/11 11:29:41;;;;;;;2.78;2.28;;;24.20;79.40;;;;;;4954293;28;20043;-82
2021/09/11 11:32:08;;;;;;;2.75;2.47;;;24.10;78.80;;;;;;4954874;28;20031;-77
2021/09/11 11:34:35;;;;;;;5.47;3.08;;;24.00;79.10;;;;;;4960574;28;20039;-76
2021/09/11 11:37:04;;;;;;;4.63;2.42;;;24.50;76.20;;;;;;4958797;28;20043;-77
2021/09/11 11:39:41;;;;;;;3.00;2.25;;;24.60;75.80;;;;;;4954261;28;20066;-76
2021/09/11 11:42:16;;;;;;;3.00;2.17;;;24.70;74.90;;;;;;4953694;28;20040;-77
2021/09/11 11:44:46;;;;;;;3.38;1.98;;;24.90;75.70;;;;;;4953703;28;20375;-76
2021/09/11 11:47:33;;;;;;;3.45;2.15;;;24.70;74.80;;;;;;4953618;28;20047;-77
2021/09/11 11:50:00;;;;;;;2.55;1.98;;;24.60;74.90;;;;;;4953733;28;20497;-76
2021/09/11 11:52:27;;;;;;;3.33;2.35;;;24.60;74.90;;;;;;4954186;28;20554;-76
2021/09/11 11:54:53;;;;;;;3.42;2.33;;;24.70;74.30;;;;;;4953966;28;20480;-75
2021/09/11 11:57:22;;;;;;;3.05;2.42;;;24.70;75.50;;;;;;4953618;28;20039;-75
2021/09/11 12:00:07;;;;;;;2.85;2.13;;;24.70;75.00;;;;;;4953336;28;20032;-73
2021/09/11 12:02:37;;;;;;;3.10;1.73;;;24.90;73.50;;;;;;4954753;28;20023;-75
2021/09/11 12:05:38;;;;;;;3.15;2.30;;;24.70;73.70;;;;;;4953925;28;20497;-76
2021/09/11 12:08:05;;;;;;;2.53;2.13;;;24.90;72.50;;;;;;4951687;28;20047;-76
2021/09/11 12:10:33;;;;;;;3.80;2.45;;;24.90;72.70;;;;;;4954328;28;20031;-76
2021/09/11 12:13:10;;;;;;;3.20;2.08;;;24.80;72.10;;;;;;4953839;28;20577;-75
2021/09/11 12:15:38;;;;;;;3.60;2.20;;;24.60;73.00;;;;;;4953954;28;20480;-75
2021/09/11 12:18:07;;;;;;;2.35;1.90;;;24.80;73.30;;;;;;4920472;28;20485;-74
2021/09/11 12:20:43;;;;;;;3.57;2.27;;;24.80;71.30;;;;;;4953933;28;20042;-73
2021/09/11 12:23:30;;;;;;;3.53;2.00;;;24.80;72.70;;;;;;4952619;28;20397;-75
2021/09/11 12:26:04;;;;;;;3.35;2.22;;;24.70;73.60;;;;;;4953169;28;20493;-76
2021/09/11 12:28:33;;;;;;;3.00;2.20;;;25.00;71.30;;;;;;4954126;28;20038;-78
2021/09/11 12:30:59;;;;;;;3.05;2.20;;;25.40;70.10;;;;;;4953679;28;20046;-75
2021/09/11 12:33:26;;;;;;;2.67;1.92;;;25.50;69.00;;;;;;4952872;28;20486;-76
2021/09/11 12:35:52;;;;;;;2.90;1.70;;;25.50;69.40;;;;;;4967025;28;20384;-76
2021/09/11 12:38:19;;;;;;;3.20;1.80;;;25.60;69.50;;;;;;4960058;28;20039;-75
2021/09/11 12:40:45;;;;;;;2.83;1.63;;;25.50;68.30;;;;;;4953390;28;20155;-77
2021/09/11 12:43:12;;;;;;;1.73;1.50;;;25.30;68.50;;;;;;4953818;28;20035;-76
2021/09/11 12:45:38;;;;;;;3.03;2.30;;;25.30;69.70;;;;;;4953785;28;20050;-76
2021/09/11 12:48:05;;;;;;;2.85;1.77;;;25.40;68.40;;;;;;4954337;28;20480;-76
2021/09/11 12:50:31;;;;;;;3.35;1.77;;;25.40;69.60;;;;;;4953397;28;20038;-76
2021/09/11 12:52:57;;;;;;;3.05;2.08;;;25.40;67.90;;;;;;4953512;28;20039;-75